sensor_id;sensor_type;location;lat;lon;timestamp;pressure;altitude;pressure_sealevel;temperature;humidity
54407;BME280;40313;50.308;30.374;2022-09-09T00:00:13;100063.94;;;12.16;100.00
54407;BME280;40313;50.308;30.374;2022-09-09T00:02:43;100064.06;;;12.13;100.00
54407;BME280;40313;50.308;30.374;2022-09-09T00:05:18;100068.56;;;12.11;100.00
54407;BME280;40313;50.308;30.374;2022-09-09T00:07:51;100074.38;;;12.00;100.00
54407;BME280;40313;50.308;30.374;2022-09-09T00:10:25;100070.94;;;12.00;100.00
54407;BME280;40313;50.308;30.374;2022-09-09T00:12:58;100066.78;;;11.96;100.00
54407;BME280;40313;50.308;30.374;2022-09-09T00:15:31;100065.25;;;11.91;100.00
54407;BME280;40313;50.308;30.374;2022-09-09T00:18:07;100070.63;;;11.88;100.00
54407;BME280;40313;50.308;30.374;2022-09-09T00:20:39;100071.16;;;11.79;100.00
54407;BME280;40313;50.308;30.374;2022-09-09T00:23:12;100087.66;;;11.80;100.00
54407;BME280;40313;50.308;30.374;2022-09-09T00:25:47;100088.69;;;11.77;100.00
54407;BME280;40313;50.308;30.374;2022-09-09T00:28:18;100086.81;;;11.63;100.00
54407;BME280;40313;50.308;30.374;2022-09-09T00:30:46;100098.94;;;11.64;100.00
54407;BME280;40313;50.308;30.374;2022-09-09T00:33:15;100099.19;;;11.59;100.00
54407;BME280;40313;50.308;30.374;2022-09-09T00:35:46;100102.16;;;11.53;100.00
54407;BME280;40313;50.308;30.374;2022-09-09T00:38:15;100112.81;;;11.49;100.00
54407;BME280;40313;50.308;30.374;2022-09-09T00:40:49;100115.44;;;11.49;100.00
54407;BME280;40313;50.308;30.374;2022-09-09T00:43:27;100116.38;;;11.48;100.00
54407;BME280;40313;50.308;30.374;2022-09-09T00:49:01;100117.16;;;11.32;100.00
54407;BME280;40313;50.308;30.374;2022-09-09T00:51:37;100118.16;;;11.30;100.00
54407;BME280;40313;50.308;30.374;2022-09-09T00:54:31;100124.00;;;11.35;100.00
54407;BME280;40313;50.308;30.374;2022-09-09T00:57:10;100119.16;;;11.27;100.00
54407;BME280;40313;50.308;30.374;2022-09-09T00:59:46;100118.56;;;11.22;100.00
54407;BME280;40313;50.308;30.374;2022-09-09T01:02:21;100124.88;;;11.18;100.00
54407;BME280;40313;50.308;30.374;2022-09-09T01:04:51;100126.78;;;11.14;100.00
54407;BME280;40313;50.308;30.374;2022-09-09T01:07:18;100125.31;;;11.09;100.00
54407;BME280;40313;50.308;30.374;2022-09-09T01:09:51;100135.00;;;11.06;100.00
54407;BME280;40313;50.308;30.374;2022-09-09T01:12:25;100128.25;;;11.02;100.00
54407;BME280;40313;50.308;30.374;2022-09-09T01:14:57;100130.78;;;11.04;100.00
54407;BME280;40313;50.308;30.374;2022-09-09T01:17:31;100132.78;;;10.99;100.00
54407;BME280;40313;50.308;30.374;2022-09-09T01:20:04;100126.94;;;10.94;100.00
54407;BME280;40313;50.308;30.374;2022-09-09T01:22:36;100127.31;;;10.86;100.00
54407;BME280;40313;50.308;30.374;2022-09-09T01:25:18;100121.97;;;10.89;100.00
54407;BME280;40313;50.308;30.374;2022-09-09T01:27:49;100114.50;;;10.81;100.00
54407;BME280;40313;50.308;30.374;2022-09-09T01:30:18;100120.03;;;10.75;100.00
54407;BME280;40313;50.308;30.374;2022-09-09T01:32:46;100121.03;;;10.72;100.00
54407;BME280;40313;50.308;30.374;2022-09-09T01:35:21;100118.66;;;10.68;100.00
54407;BME280;40313;50.308;30.374;2022-09-09T01:37:52;100118.88;;;10.63;100.00
54407;BME280;40313;50.308;30.374;2022-09-09T01:40:19;100111.88;;;10.64;100.00
54407;BME280;40313;50.308;30.374;2022-09-09T01:42:47;100112.97;;;10.60;100.00
54407;BME280;40313;50.308;30.374;2022-09-09T01:45:14;100105.13;;;10.60;100.00
54407;BME280;40313;50.308;30.374;2022-09-09T01:47:41;100109.59;;;10.58;100.00
54407;BME280;40313;50.308;30.374;2022-09-09T01:50:09;100102.59;;;10.58;100.00
54407;BME280;40313;50.308;30.374;2022-09-09T01:52:37;100106.34;;;10.52;100.00
54407;BME280;40313;50.308;30.374;2022-09-09T01:55:05;100102.97;;;10.50;100.00
54407;BME280;40313;50.308;30.374;2022-09-09T01:57:35;100105.59;;;10.50;100.00
54407;BME280;40313;50.308;30.374;2022-09-09T02:00:09;100105.59;;;10.50;100.00
54407;BME280;40313;50.308;30.374;2022-09-09T02:02:42;100099.97;;;10.41;100.00
54407;BME280;40313;50.308;30.374;2022-09-09T02:05:18;100098.97;;;10.43;100.00
54407;BME280;40313;50.308;30.374;2022-09-09T02:07:58;100101.72;;;10.40;100.00
54407;BME280;40313;50.308;30.374;2022-09-09T02:10:32;100098.50;;;10.35;100.00
54407;BME280;40313;50.308;30.374;2022-09-09T02:13:03;100092.47;;;10.33;100.00
54407;BME280;40313;50.308;30.374;2022-09-09T02:15:34;100090.91;;;10.29;100.00
54407;BME280;40313;50.308;30.374;2022-09-09T02:18:06;100096.28;;;10.26;100.00
54407;BME280;40313;50.308;30.374;2022-09-09T02:20:35;100091.00;;;10.27;100.00
54407;BME280;40313;50.308;30.374;2022-09-09T02:23:04;100094.75;;;10.21;100.00
54407;BME280;40313;50.308;30.374;2022-09-09T02:25:33;100094.81;;;10.20;100.00
54407;BME280;40313;50.308;30.374;2022-09-09T02:28:04;100099.28;;;10.18;100.00
54407;BME280;40313;50.308;30.374;2022-09-09T02:30:34;100094.81;;;10.20;100.00
54407;BME280;40313;50.308;30.374;2022-09-09T02:33:04;100099.03;;;10.23;100.00
54407;BME280;40313;50.308;30.374;2022-09-09T02:35:34;100099.94;;;10.21;100.00
54407;BME280;40313;50.308;30.374;2022-09-09T02:38:06;100097.50;;;10.18;100.00
54407;BME280;40313;50.308;30.374;2022-09-09T02:40:33;100097.50;;;10.18;100.00
54407;BME280;40313;50.308;30.374;2022-09-09T02:43:00;100100.25;;;10.15;100.00
54407;BME280;40313;50.308;30.374;2022-09-09T02:45:33;100095.69;;;10.20;100.00
54407;BME280;40313;50.308;30.374;2022-09-09T02:48:09;100094.81;;;10.20;100.00
54407;BME280;40313;50.308;30.374;2022-09-09T02:50:45;100093.22;;;10.17;100.00
54407;BME280;40313;50.308;30.374;2022-09-09T02:53:17;100090.81;;;10.13;100.00
54407;BME280;40313;50.308;30.374;2022-09-09T02:55:47;100086.59;;;10.10;100.00
54407;BME280;40313;50.308;30.374;2022-09-09T02:58:17;100089.16;;;10.12;100.00
54407;BME280;40313;50.308;30.374;2022-09-09T03:00:46;100093.34;;;10.14;100.00
54407;BME280;40313;50.308;30.374;2022-09-09T03:03:15;100100.41;;;10.12;100.00
54407;BME280;40313;50.308;30.374;2022-09-09T03:05:42;100100.56;;;10.09;100.00
54407;BME280;40313;50.308;30.374;2022-09-09T03:08:09;100114.66;;;10.05;100.00
54407;BME280;40313;50.308;30.374;2022-09-09T03:10:36;100118.09;;;10.06;100.00
54407;BME280;40313;50.308;30.374;2022-09-09T03:13:03;100121.56;;;10.06;100.00
54407;BME280;40313;50.308;30.374;2022-09-09T03:15:30;100124.00;;;10.09;100.00
54407;BME280;40313;50.308;30.374;2022-09-09T03:17:57;100127.47;;;10.10;100.00
54407;BME280;40313;50.308;30.374;2022-09-09T03:20:27;100120.44;;;10.12;100.00
54407;BME280;40313;50.308;30.374;2022-09-09T03:22:54;100126.47;;;10.12;100.00
54407;BME280;40313;50.308;30.374;2022-09-09T03:25:21;100116.88;;;10.13;100.00
54407;BME280;40313;50.308;30.374;2022-09-09T03:27:49;100122.97;;;10.13;100.00
54407;BME280;40313;50.308;30.374;2022-09-09T03:30:19;100121.09;;;10.15;100.00
54407;BME280;40313;50.308;30.374;2022-09-09T03:32:46;100125.41;;;10.16;100.00
54407;BME280;40313;50.308;30.374;2022-09-09T03:35:13;100128.03;;;10.16;100.00
54407;BME280;40313;50.308;30.374;2022-09-09T03:37:41;100120.81;;;10.21;100.00
54407;BME280;40313;50.308;30.374;2022-09-09T03:40:09;100128.72;;;10.20;100.00
54407;BME280;40313;50.308;30.374;2022-09-09T03:42:36;100124.81;;;10.29;100.00
54407;BME280;40313;50.308;30.374;2022-09-09T03:45:04;100122.94;;;10.32;100.00
54407;BME280;40313;50.308;30.374;2022-09-09T03:47:30;100132.41;;;10.35;100.00
54407;BME280;40313;50.308;30.374;2022-09-09T03:49:57;100130.56;;;10.37;100.00
54407;BME280;40313;50.308;30.374;2022-09-09T03:52:23;100131.53;;;10.34;100.00
54407;BME280;40313;50.308;30.374;2022-09-09T03:54:53;100128.59;;;10.42;100.00
54407;BME280;40313;50.308;30.374;2022-09-09T03:57:22;100127.53;;;10.46;100.00
54407;BME280;40313;50.308;30.374;2022-09-09T03:59:48;100124.91;;;10.46;100.00
54407;BME280;40313;50.308;30.374;2022-09-09T04:02:15;100128.44;;;10.45;100.00
54407;BME280;40313;50.308;30.374;2022-09-09T04:04:41;100135.44;;;10.45;100.00
54407;BME280;40313;50.308;30.374;2022-09-09T04:07:08;100144.22;;;10.42;100.00
54407;BME280;40313;50.308;30.374;2022-09-09T04:09:35;100133.16;;;10.37;100.00
54407;BME280;40313;50.308;30.374;2022-09-09T04:12:03;100133.94;;;10.39;100.00
54407;BME280;40313;50.308;30.374;2022-09-09T04:14:29;100129.84;;;10.33;100.00
54407;BME280;40313;50.308;30.374;2022-09-09T04:16:56;100136.56;;;10.39;100.00
54407;BME280;40313;50.308;30.374;2022-09-09T04:19:24;100136.56;;;10.39;100.00
54407;BME280;40313;50.308;30.374;2022-09-09T04:21:51;100149.44;;;10.42;100.00
54407;BME280;40313;50.308;30.374;2022-09-09T04:24:18;100158.75;;;10.48;100.00
54407;BME280;40313;50.308;30.374;2022-09-09T04:26:45;100159.31;;;10.54;100.00
54407;BME280;40313;50.308;30.374;2022-09-09T04:29:13;100150.31;;;10.60;100.00
54407;BME280;40313;50.308;30.374;2022-09-09T04:31:40;100144.97;;;10.63;100.00
54407;BME280;40313;50.308;30.374;2022-09-09T04:34:07;100140.91;;;10.75;100.00
54407;BME280;40313;50.308;30.374;2022-09-09T04:36:34;100144.00;;;10.83;100.00
54407;BME280;40313;50.308;30.374;2022-09-09T04:39:01;100153.38;;;10.87;100.00
54407;BME280;40313;50.308;30.374;2022-09-09T04:41:28;100162.34;;;10.99;100.00
54407;BME280;40313;50.308;30.374;2022-09-09T04:43:56;100168.13;;;11.06;100.00
54407;BME280;40313;50.308;30.374;2022-09-09T04:46:24;100165.03;;;11.15;100.00
54407;BME280;40313;50.308;30.374;2022-09-09T04:48:51;100164.78;;;11.20;100.00
54407;BME280;40313;50.308;30.374;2022-09-09T04:51:19;100157.53;;;11.60;100.00
54407;BME280;40313;50.308;30.374;2022-09-09T04:53:45;100156.16;;;11.53;100.00
54407;BME280;40313;50.308;30.374;2022-09-09T04:56:14;100152.06;;;11.65;100.00
54407;BME280;40313;50.308;30.374;2022-09-09T04:58:41;100148.78;;;11.77;100.00
54407;BME280;40313;50.308;30.374;2022-09-09T05:01:09;100149.56;;;11.79;100.00
54407;BME280;40313;50.308;30.374;2022-09-09T05:03:37;100157.03;;;12.03;100.00
54407;BME280;40313;50.308;30.374;2022-09-09T05:06:06;100144.56;;;12.24;100.00
54407;BME280;40313;50.308;30.374;2022-09-09T05:08:33;100138.00;;;12.79;100.00
54407;BME280;40313;50.308;30.374;2022-09-09T05:11:00;100139.28;;;14.05;100.00
54407;BME280;40313;50.308;30.374;2022-09-09T05:13:27;100141.91;;;13.90;100.00
54407;BME280;40313;50.308;30.374;2022-09-09T05:15:55;100130.34;;;14.49;100.00
54407;BME280;40313;50.308;30.374;2022-09-09T05:18:22;100130.66;;;15.37;100.00
54407;BME280;40313;50.308;30.374;2022-09-09T05:20:50;100137.88;;;15.08;100.00
54407;BME280;40313;50.308;30.374;2022-09-09T05:23:17;100144.59;;;15.12;100.00
54407;BME280;40313;50.308;30.374;2022-09-09T05:25:43;100126.53;;;15.20;100.00
54407;BME280;40313;50.308;30.374;2022-09-09T05:28:11;100122.41;;;17.49;91.48
54407;BME280;40313;50.308;30.374;2022-09-09T05:30:38;100135.34;;;17.52;88.77
54407;BME280;40313;50.308;30.374;2022-09-09T05:33:04;100137.84;;;17.31;87.37
54407;BME280;40313;50.308;30.374;2022-09-09T05:35:31;100141.16;;;16.86;89.33
54407;BME280;40313;50.308;30.374;2022-09-09T05:38:00;100142.94;;;16.50;89.63
54407;BME280;40313;50.308;30.374;2022-09-09T05:40:27;100149.22;;;16.60;89.55
54407;BME280;40313;50.308;30.374;2022-09-09T05:42:53;100152.06;;;16.57;90.44
54407;BME280;40313;50.308;30.374;2022-09-09T05:45:20;100146.81;;;16.57;89.54
54407;BME280;40313;50.308;30.374;2022-09-09T05:47:51;100137.16;;;16.45;87.89
54407;BME280;40313;50.308;30.374;2022-09-09T05:50:18;100131.88;;;16.45;90.46
54407;BME280;40313;50.308;30.374;2022-09-09T05:52:45;100141.13;;;16.26;89.51
54407;BME280;40313;50.308;30.374;2022-09-09T05:55:14;100153.09;;;16.06;89.66
54407;BME280;40313;50.308;30.374;2022-09-09T05:57:41;100159.13;;;15.95;91.14
54407;BME280;40313;50.308;30.374;2022-09-09T06:00:08;100165.75;;;16.86;88.29
54407;BME280;40313;50.308;30.374;2022-09-09T06:02:35;100154.09;;;20.96;72.03
54407;BME280;40313;50.308;30.374;2022-09-09T06:05:04;100141.16;;;23.06;59.97
54407;BME280;40313;50.308;30.374;2022-09-09T06:07:31;100137.25;;;22.38;59.36
54407;BME280;40313;50.308;30.374;2022-09-09T06:09:57;100156.47;;;21.09;62.58
54407;BME280;40313;50.308;30.374;2022-09-09T06:12:26;100162.88;;;20.48;65.00
54407;BME280;40313;50.308;30.374;2022-09-09T06:14:53;100164.16;;;20.03;66.13
54407;BME280;40313;50.308;30.374;2022-09-09T06:17:19;100157.63;;;20.07;67.68
54407;BME280;40313;50.308;30.374;2022-09-09T06:19:46;100162.69;;;20.30;67.21
54407;BME280;40313;50.308;30.374;2022-09-09T06:22:12;100162.00;;;20.28;67.73
54407;BME280;40313;50.308;30.374;2022-09-09T06:24:39;100164.25;;;20.32;68.38
54407;BME280;40313;50.308;30.374;2022-09-09T06:27:05;100164.66;;;19.87;66.75
54407;BME280;40313;50.308;30.374;2022-09-09T06:29:33;100166.53;;;19.75;68.79
54407;BME280;40313;50.308;30.374;2022-09-09T06:32:00;100165.50;;;19.36;67.66
54407;BME280;40313;50.308;30.374;2022-09-09T06:34:27;100153.38;;;19.12;68.21
54407;BME280;40313;50.308;30.374;2022-09-09T06:36:54;100159.09;;;18.96;68.63
54407;BME280;40313;50.308;30.374;2022-09-09T06:39:23;100158.00;;;18.98;70.53
54407;BME280;40313;50.308;30.374;2022-09-09T06:41:49;100161.88;;;18.94;70.36
54407;BME280;40313;50.308;30.374;2022-09-09T06:44:18;100163.31;;;18.98;69.57
54407;BME280;40313;50.308;30.374;2022-09-09T06:46:46;100164.41;;;18.96;68.39
54407;BME280;40313;50.308;30.374;2022-09-09T06:49:13;100149.69;;;19.03;69.26
54407;BME280;40313;50.308;30.374;2022-09-09T06:51:40;100151.78;;;18.99;67.49
54407;BME280;40313;50.308;30.374;2022-09-09T06:54:08;100150.22;;;18.97;67.89
54407;BME280;40313;50.308;30.374;2022-09-09T06:56:36;100151.00;;;18.88;66.67
54407;BME280;40313;50.308;30.374;2022-09-09T06:59:04;100156.47;;;18.96;67.29
54407;BME280;40313;50.308;30.374;2022-09-09T07:01:32;100160.22;;;18.93;66.78
54407;BME280;40313;50.308;30.374;2022-09-09T07:04:01;100165.50;;;18.93;66.57
54407;BME280;40313;50.308;30.374;2022-09-09T07:06:30;100156.78;;;19.03;68.06
54407;BME280;40313;50.308;30.374;2022-09-09T07:08:59;100164.00;;;19.22;68.79
54407;BME280;40313;50.308;30.374;2022-09-09T07:11:27;100168.41;;;19.32;68.02
54407;BME280;40313;50.308;30.374;2022-09-09T07:13:54;100160.66;;;19.41;66.31
54407;BME280;40313;50.308;30.374;2022-09-09T07:16:22;100169.22;;;19.33;66.15
54407;BME280;40313;50.308;30.374;2022-09-09T07:18:50;100169.38;;;19.31;66.63
54407;BME280;40313;50.308;30.374;2022-09-09T07:21:18;100170.03;;;19.24;67.40
54407;BME280;40313;50.308;30.374;2022-09-09T07:23:46;100167.06;;;19.17;66.58
54407;BME280;40313;50.308;30.374;2022-09-09T07:26:14;100163.44;;;19.18;66.61
54407;BME280;40313;50.308;30.374;2022-09-09T07:28:42;100159.44;;;19.24;65.83
54407;BME280;40313;50.308;30.374;2022-09-09T07:31:13;100168.75;;;19.18;65.18
54407;BME280;40313;50.308;30.374;2022-09-09T07:33:41;100164.59;;;19.25;65.49
54407;BME280;40313;50.308;30.374;2022-09-09T07:36:09;100166.31;;;19.36;64.76
54407;BME280;40313;50.308;30.374;2022-09-09T07:38:42;100171.59;;;19.57;63.49
54407;BME280;40313;50.308;30.374;2022-09-09T07:41:12;100170.28;;;19.94;63.42
54407;BME280;40313;50.308;30.374;2022-09-09T07:43:39;100165.56;;;20.07;61.80
54407;BME280;40313;50.308;30.374;2022-09-09T07:46:07;100167.00;;;20.21;61.99
54407;BME280;40313;50.308;30.374;2022-09-09T07:48:34;100172.59;;;20.37;61.17
54407;BME280;40313;50.308;30.374;2022-09-09T07:51:08;100172.34;;;20.50;60.80
54407;BME280;40313;50.308;30.374;2022-09-09T07:53:37;100169.56;;;20.52;60.70
54407;BME280;40313;50.308;30.374;2022-09-09T07:56:06;100182.81;;;20.62;60.17
54407;BME280;40313;50.308;30.374;2022-09-09T07:58:34;100176.81;;;20.60;59.79
54407;BME280;40313;50.308;30.374;2022-09-09T08:01:06;100182.13;;;20.60;58.94
54407;BME280;40313;50.308;30.374;2022-09-09T08:03:32;100187.47;;;20.69;59.79
54407;BME280;40313;50.308;30.374;2022-09-09T08:06:00;100174.75;;;20.53;58.35
54407;BME280;40313;50.308;30.374;2022-09-09T08:08:28;100178.63;;;20.40;57.64
54407;BME280;40313;50.308;30.374;2022-09-09T08:11:01;100171.78;;;20.37;57.83
54407;BME280;40313;50.308;30.374;2022-09-09T08:13:29;100171.66;;;20.48;57.63
54407;BME280;40313;50.308;30.374;2022-09-09T08:16:04;100172.69;;;20.67;56.44
54407;BME280;40313;50.308;30.374;2022-09-09T08:18:30;100162.75;;;20.79;56.01
54407;BME280;40313;50.308;30.374;2022-09-09T08:20:57;100160.38;;;21.05;55.71
54407;BME280;40313;50.308;30.374;2022-09-09T08:23:23;100168.13;;;21.36;55.01
54407;BME280;40313;50.308;30.374;2022-09-09T08:25:51;100162.22;;;21.62;54.85
54407;BME280;40313;50.308;30.374;2022-09-09T08:28:17;100166.38;;;21.74;54.22
54407;BME280;40313;50.308;30.374;2022-09-09T08:30:45;100161.13;;;21.54;51.81
54407;BME280;40313;50.308;30.374;2022-09-09T08:33:13;100154.56;;;21.39;52.04
54407;BME280;40313;50.308;30.374;2022-09-09T08:35:39;100162.59;;;21.19;51.78
54407;BME280;40313;50.308;30.374;2022-09-09T08:38:15;100157.97;;;21.31;52.05
54407;BME280;40313;50.308;30.374;2022-09-09T08:40:44;100149.75;;;21.15;51.98
54407;BME280;40313;50.308;30.374;2022-09-09T08:43:15;100145.88;;;21.09;51.63
54407;BME280;40313;50.308;30.374;2022-09-09T08:45:50;100145.03;;;20.89;50.43
54407;BME280;40313;50.308;30.374;2022-09-09T08:48:38;100140.41;;;21.11;50.88
54407;BME280;40313;50.308;30.374;2022-09-09T08:51:09;100144.72;;;21.12;51.27
54407;BME280;40313;50.308;30.374;2022-09-09T08:53:38;100141.34;;;21.29;51.67
54407;BME280;40313;50.308;30.374;2022-09-09T08:56:11;100135.47;;;21.35;51.06
54407;BME280;40313;50.308;30.374;2022-09-09T08:58:43;100126.47;;;21.46;51.00
54407;BME280;40313;50.308;30.374;2022-09-09T09:01:35;100129.34;;;21.35;49.55
54407;BME280;40313;50.308;30.374;2022-09-09T09:04:14;100121.72;;;21.02;49.58
54407;BME280;40313;50.308;30.374;2022-09-09T09:06:50;100118.75;;;21.15;50.01
54407;BME280;40313;50.308;30.374;2022-09-09T09:09:26;100124.03;;;21.25;50.04
54407;BME280;40313;50.308;30.374;2022-09-09T09:11:58;100129.28;;;21.54;51.03
54407;BME280;40313;50.308;30.374;2022-09-09T09:14:28;100126.31;;;21.95;49.99
54407;BME280;40313;50.308;30.374;2022-09-09T09:16:59;100122.28;;;22.37;50.21
54407;BME280;40313;50.308;30.374;2022-09-09T09:19:26;100119.88;;;22.43;47.72
54407;BME280;40313;50.308;30.374;2022-09-09T09:21:58;100127.09;;;22.69;47.73
54407;BME280;40313;50.308;30.374;2022-09-09T09:24:35;100117.13;;;22.71;45.68
54407;BME280;40313;50.308;30.374;2022-09-09T09:27:12;100121.22;;;22.84;46.44
54407;BME280;40313;50.308;30.374;2022-09-09T09:29:39;100120.16;;;22.76;46.74
54407;BME280;40313;50.308;30.374;2022-09-09T09:32:11;100124.84;;;22.83;46.75
54407;BME280;40313;50.308;30.374;2022-09-09T09:34:40;100121.84;;;22.41;45.33
54407;BME280;40313;50.308;30.374;2022-09-09T09:37:12;100107.88;;;22.39;45.45
54407;BME280;40313;50.308;30.374;2022-09-09T09:39:42;100109.19;;;22.25;45.75
54407;BME280;40313;50.308;30.374;2022-09-09T09:42:10;100115.53;;;22.15;45.52
54407;BME280;40313;50.308;30.374;2022-09-09T09:44:39;100108.78;;;22.20;46.11
54407;BME280;40313;50.308;30.374;2022-09-09T09:47:10;100107.34;;;22.26;46.20
54407;BME280;40313;50.308;30.374;2022-09-09T09:49:38;100102.50;;;22.21;45.62
54407;BME280;40313;50.308;30.374;2022-09-09T09:52:05;100102.97;;;22.35;46.21
54407;BME280;40313;50.308;30.374;2022-09-09T09:54:34;100106.31;;;22.55;46.08
54407;BME280;40313;50.308;30.374;2022-09-09T09:57:11;100107.38;;;22.80;46.29
54407;BME280;40313;50.308;30.374;2022-09-09T09:59:38;100113.84;;;22.77;46.03
54407;BME280;40313;50.308;30.374;2022-09-09T10:02:18;100116.97;;;22.73;45.16
54407;BME280;40313;50.308;30.374;2022-09-09T10:04:45;100115.50;;;22.60;45.39
54407;BME280;40313;50.308;30.374;2022-09-09T10:07:17;100109.69;;;22.75;45.66
54407;BME280;40313;50.308;30.374;2022-09-09T10:09:44;100115.75;;;22.67;45.00
54407;BME280;40313;50.308;30.374;2022-09-09T10:12:20;100119.09;;;22.69;44.73
54407;BME280;40313;50.308;30.374;2022-09-09T10:14:56;100109.69;;;22.57;44.67
54407;BME280;40313;50.308;30.374;2022-09-09T10:17:32;100115.81;;;22.57;45.13
54407;BME280;40313;50.308;30.374;2022-09-09T10:20:17;100113.88;;;22.59;45.34
54407;BME280;40313;50.308;30.374;2022-09-09T10:22:50;100116.13;;;22.54;45.38
54407;BME280;40313;50.308;30.374;2022-09-09T10:25:38;100115.66;;;22.77;44.82
54407;BME280;40313;50.308;30.374;2022-09-09T10:28:32;100117.03;;;22.81;43.43
54407;BME280;40313;50.308;30.374;2022-09-09T10:31:10;100112.28;;;23.11;43.83
54407;BME280;40313;50.308;30.374;2022-09-09T10:33:48;100113.41;;;23.35;43.59
54407;BME280;40313;50.308;30.374;2022-09-09T10:36:19;100114.16;;;23.45;42.85
54407;BME280;40313;50.308;30.374;2022-09-09T10:38:48;100115.81;;;23.46;41.90
54407;BME280;40313;50.308;30.374;2022-09-09T10:41:21;100108.78;;;23.37;41.00
54407;BME280;40313;50.308;30.374;2022-09-09T10:44:12;100115.25;;;23.34;40.26
54407;BME280;40313;50.308;30.374;2022-09-09T10:46:51;100114.47;;;23.16;40.42
54407;BME280;40313;50.308;30.374;2022-09-09T10:49:49;100112.28;;;23.11;40.39
54407;BME280;40313;50.308;30.374;2022-09-09T10:52:23;100115.72;;;23.29;41.48
54407;BME280;40313;50.308;30.374;2022-09-09T10:54:59;100123.19;;;23.60;41.61
54407;BME280;40313;50.308;30.374;2022-09-09T10:57:29;100116.63;;;23.38;39.80
54407;BME280;40313;50.308;30.374;2022-09-09T11:00:01;100120.19;;;23.55;40.22
54407;BME280;40313;50.308;30.374;2022-09-09T11:02:30;100130.91;;;23.72;40.12
54407;BME280;40313;50.308;30.374;2022-09-09T11:05:00;100118.13;;;23.75;39.70
54407;BME280;40313;50.308;30.374;2022-09-09T11:07:34;100120.94;;;23.74;39.37
54407;BME280;40313;50.308;30.374;2022-09-09T11:10:05;100121.47;;;23.86;40.26
54407;BME280;40313;50.308;30.374;2022-09-09T11:12:35;100119.94;;;24.09;40.24
54407;BME280;40313;50.308;30.374;2022-09-09T11:15:07;100118.78;;;24.20;39.48
54407;BME280;40313;50.308;30.374;2022-09-09T11:17:43;100118.66;;;24.46;39.76
54407;BME280;40313;50.308;30.374;2022-09-09T11:20:14;100111.38;;;24.65;39.82
54407;BME280;40313;50.308;30.374;2022-09-09T11:22:46;100113.19;;;24.73;39.73
54407;BME280;40313;50.308;30.374;2022-09-09T11:25:16;100113.19;;;24.81;38.96
54407;BME280;40313;50.308;30.374;2022-09-09T11:27:56;100117.13;;;24.52;38.02
54407;BME280;40313;50.308;30.374;2022-09-09T11:30:29;100120.78;;;24.18;38.49
54407;BME280;40313;50.308;30.374;2022-09-09T11:33:08;100112.16;;;24.41;39.45
54407;BME280;40313;50.308;30.374;2022-09-09T11:35:47;100103.97;;;24.34;38.08
54407;BME280;40313;50.308;30.374;2022-09-09T11:38:21;100104.16;;;24.41;39.14
54407;BME280;40313;50.308;30.374;2022-09-09T11:40:55;100091.13;;;24.38;39.12
54407;BME280;40313;50.308;30.374;2022-09-09T11:43:28;100100.47;;;24.25;39.29
54407;BME280;40313;50.308;30.374;2022-09-09T11:45:58;100095.63;;;24.21;39.46
54407;BME280;40313;50.308;30.374;2022-09-09T11:48:29;100090.31;;;24.37;39.19
54407;BME280;40313;50.308;30.374;2022-09-09T11:51:01;100096.16;;;24.41;39.44
54407;BME280;40313;50.308;30.374;2022-09-09T11:53:30;100096.78;;;24.26;39.15
54407;BME280;40313;50.308;30.374;2022-09-09T11:56:09;100084.34;;;23.84;38.88
54407;BME280;40313;50.308;30.374;2022-09-09T11:58:41;100079.66;;;23.78;39.02
54407;BME280;40313;50.308;30.374;2022-09-09T12:01:16;100073.97;;;23.73;38.89
54407;BME280;40313;50.308;30.374;2022-09-09T12:04:00;100075.25;;;23.60;39.43
54407;BME280;40313;50.308;30.374;2022-09-09T12:06:42;100072.13;;;23.73;38.74
54407;BME280;40313;50.308;30.374;2022-09-09T12:09:17;100073.94;;;23.64;39.16
54407;BME280;40313;50.308;30.374;2022-09-09T12:11:44;100072.13;;;23.65;39.40
54407;BME280;40313;50.308;30.374;2022-09-09T12:14:20;100073.31;;;23.71;39.80
54407;BME280;40313;50.308;30.374;2022-09-09T12:16:48;100071.13;;;23.66;39.19
54407;BME280;40313;50.308;30.374;2022-09-09T12:19:17;100066.50;;;23.76;39.44
54407;BME280;40313;50.308;30.374;2022-09-09T12:21:51;100070.06;;;23.93;39.50
54407;BME280;40313;50.308;30.374;2022-09-09T12:24:26;100080.59;;;24.03;39.46
54407;BME280;40313;50.308;30.374;2022-09-09T12:26:59;100073.53;;;23.86;39.02
54407;BME280;40313;50.308;30.374;2022-09-09T12:29:32;100080.81;;;23.75;39.06
54407;BME280;40313;50.308;30.374;2022-09-09T12:32:07;100082.34;;;23.78;39.70
54407;BME280;40313;50.308;30.374;2022-09-09T12:34:43;100080.41;;;23.54;38.57
54407;BME280;40313;50.308;30.374;2022-09-09T12:37:18;100084.28;;;23.68;39.12
54407;BME280;40313;50.308;30.374;2022-09-09T12:39:51;100085.75;;;23.54;38.73
54407;BME280;40313;50.308;30.374;2022-09-09T12:42:22;100087.38;;;23.55;39.60
54407;BME280;40313;50.308;30.374;2022-09-09T12:44:53;100092.44;;;23.32;38.69
54407;BME280;40313;50.308;30.374;2022-09-09T12:47:23;100092.09;;;23.26;38.79
54407;BME280;40313;50.308;30.374;2022-09-09T12:49:52;100088.25;;;23.21;38.90
54407;BME280;40313;50.308;30.374;2022-09-09T12:52:26;100086.03;;;23.16;38.90
54407;BME280;40313;50.308;30.374;2022-09-09T12:54:55;100083.47;;;23.06;39.19